sensor_id;sensor_type;location;lat;lon;timestamp;pressure;altitude;pressure_sealevel;temperature;humidity
79625;BME280;69101;45.534;10.218;2023-05-23T00:01:31;99675.66;;;22.10;51.80
79625;BME280;69101;45.534;10.218;2023-05-23T00:03:57;99664.66;;;22.07;51.75
79625;BME280;69101;45.534;10.218;2023-05-23T00:06:23;99667.91;;;22.09;51.68
79625;BME280;69101;45.534;10.218;2023-05-23T00:08:48;99663.22;;;22.11;51.76
79625;BME280;69101;45.534;10.218;2023-05-23T00:11:14;99659.94;;;22.09;51.79
79625;BME280;69101;45.534;10.218;2023-05-23T00:13:40;99665.44;;;22.14;51.62
79625;BME280;69101;45.534;10.218;2023-05-23T00:16:05;99664.63;;;22.13;51.61
79625;BME280;69101;45.534;10.218;2023-05-23T00:18:35;99667.06;;;22.15;51.44
79625;BME280;69101;45.534;10.218;2023-05-23T00:21:01;99669.72;;;22.15;51.60
79625;BME280;69101;45.534;10.218;2023-05-23T00:23:26;99669.94;;;22.13;51.71
79625;BME280;69101;45.534;10.218;2023-05-23T00:25:54;99656.69;;;22.13;51.31
79625;BME280;69101;45.534;10.218;2023-05-23T00:28:20;99660.75;;;22.16;51.42
79625;BME280;69101;45.534;10.218;2023-05-23T00:30:47;99665.00;;;22.17;51.42
79625;BME280;69101;45.534;10.218;2023-05-23T00:33:16;99657.88;;;22.17;51.45
79625;BME280;69101;45.534;10.218;2023-05-23T00:35:41;99659.53;;;22.18;51.25
79625;BME280;69101;45.534;10.218;2023-05-23T00:38:07;99657.06;;;22.17;51.38
79625;BME280;69101;45.534;10.218;2023-05-23T00:40:33;99663.41;;;22.16;51.32
79625;BME280;69101;45.534;10.218;2023-05-23T00:42:59;99657.88;;;22.17;51.21
79625;BME280;69101;45.534;10.218;2023-05-23T00:45:25;99658.31;;;22.14;51.33
79625;BME280;69101;45.534;10.218;2023-05-23T00:47:51;99656.47;;;22.15;51.44
79625;BME280;69101;45.534;10.218;2023-05-23T00:50:17;99660.13;;;22.14;51.40
79625;BME280;69101;45.534;10.218;2023-05-23T00:52:44;99659.53;;;22.12;51.18
79625;BME280;69101;45.534;10.218;2023-05-23T00:55:12;99660.13;;;22.14;51.17
79625;BME280;69101;45.534;10.218;2023-05-23T00:57:38;99651.59;;;22.12;51.36
79625;BME280;69101;45.534;10.218;2023-05-23T01:00:07;99655.06;;;22.12;51.25
79625;BME280;69101;45.534;10.218;2023-05-23T01:02:36;99653.41;;;22.11;51.15
79625;BME280;69101;45.534;10.218;2023-05-23T01:05:06;99658.53;;;22.13;51.37
79625;BME280;69101;45.534;10.218;2023-05-23T01:07:31;99650.78;;;22.11;51.23
79625;BME280;69101;45.534;10.218;2023-05-23T01:09:56;99648.13;;;22.11;51.07
79625;BME280;69101;45.534;10.218;2023-05-23T01:15:20;99651.59;;;22.12;51.28
79625;BME280;69101;45.534;10.218;2023-05-23T01:17:54;99644.47;;;22.12;51.00
79625;BME280;69101;45.534;10.218;2023-05-23T01:20:27;99649.97;;;22.11;51.13
79625;BME280;69101;45.534;10.218;2023-05-23T01:22:58;99651.59;;;22.12;51.15
79625;BME280;69101;45.534;10.218;2023-05-23T01:28:27;99644.06;;;22.09;51.20
79625;BME280;69101;45.534;10.218;2023-05-23T01:30:56;99637.97;;;22.08;51.16
79625;BME280;69101;45.534;10.218;2023-05-23T01:33:24;99637.97;;;22.08;51.16
79625;BME280;69101;45.534;10.218;2023-05-23T01:35:50;99633.69;;;22.07;51.06
79625;BME280;69101;45.534;10.218;2023-05-23T01:38:15;99633.69;;;22.07;51.08
79625;BME280;69101;45.534;10.218;2023-05-23T01:40:41;99636.56;;;22.06;51.06
79625;BME280;69101;45.534;10.218;2023-05-23T01:43:06;99636.56;;;22.06;51.17
79625;BME280;69101;45.534;10.218;2023-05-23T01:45:32;99641.22;;;22.04;51.17
79625;BME280;69101;45.534;10.218;2023-05-23T01:47:59;99638.38;;;22.05;51.13
79625;BME280;69101;45.534;10.218;2023-05-23T01:50:25;99641.22;;;22.04;51.11
79625;BME280;69101;45.534;10.218;2023-05-23T01:52:51;99634.91;;;22.05;51.00
79625;BME280;69101;45.534;10.218;2023-05-23T01:55:19;99630.44;;;22.05;51.06
79625;BME280;69101;45.534;10.218;2023-05-23T01:57:55;99641.84;;;22.06;51.00
79625;BME280;69101;45.534;10.218;2023-05-23T02:00:21;99633.72;;;22.01;51.06
79625;BME280;69101;45.534;10.218;2023-05-23T02:02:46;99642.47;;;22.01;51.14
79625;BME280;69101;45.534;10.218;2023-05-23T02:05:12;99637.41;;;22.00;51.02
79625;BME280;69101;45.534;10.218;2023-05-23T02:07:37;99641.47;;;21.96;51.18
79625;BME280;69101;45.534;10.218;2023-05-23T02:10:05;99643.50;;;22.00;51.13
79625;BME280;69101;45.534;10.218;2023-05-23T02:12:30;99643.50;;;22.00;51.07
79625;BME280;69101;45.534;10.218;2023-05-23T02:14:56;99641.88;;;21.99;51.24
79625;BME280;69101;45.534;10.218;2023-05-23T02:17:21;99641.88;;;21.99;51.10
79625;BME280;69101;45.534;10.218;2023-05-23T02:19:48;99637.59;;;21.98;50.97
79625;BME280;69101;45.534;10.218;2023-05-23T02:22:14;99638.63;;;21.97;51.09
79625;BME280;69101;45.534;10.218;2023-05-23T02:24:39;99634.94;;;21.98;51.20
79625;BME280;69101;45.534;10.218;2023-05-23T02:27:05;99634.16;;;21.98;51.08
79625;BME280;69101;45.534;10.218;2023-05-23T02:29:31;99639.44;;;21.98;51.02
79625;BME280;69101;45.534;10.218;2023-05-23T02:31:56;99636.16;;;21.96;51.16
79625;BME280;69101;45.534;10.218;2023-05-23T02:34:22;99637.81;;;21.97;51.02
79625;BME280;69101;45.534;10.218;2023-05-23T02:36:47;99635.38;;;21.95;51.08
79625;BME280;69101;45.534;10.218;2023-05-23T02:39:12;99637.22;;;21.95;50.95
79625;BME280;69101;45.534;10.218;2023-05-23T02:41:38;99632.50;;;21.97;51.04
79625;BME280;69101;45.534;10.218;2023-05-23T02:44:03;99638.63;;;21.91;51.15
79625;BME280;69101;45.534;10.218;2023-05-23T02:46:28;99637.41;;;21.93;51.05
79625;BME280;69101;45.534;10.218;2023-05-23T02:48:54;99641.91;;;21.93;51.08
79625;BME280;69101;45.534;10.218;2023-05-23T02:51:19;99633.34;;;21.91;51.07
79625;BME280;69101;45.534;10.218;2023-05-23T02:53:45;99633.34;;;21.91;50.94
79625;BME280;69101;45.534;10.218;2023-05-23T02:56:11;99638.63;;;21.91;51.06
79625;BME280;69101;45.534;10.218;2023-05-23T02:58:37;99640.50;;;21.90;51.00
79625;BME280;69101;45.534;10.218;2023-05-23T03:01:04;99636.22;;;21.89;51.08
79625;BME280;69101;45.534;10.218;2023-05-23T03:03:29;99645.56;;;21.92;50.99
79625;BME280;69101;45.534;10.218;2023-05-23T03:05:58;99644.75;;;21.91;51.09
79625;BME280;69101;45.534;10.218;2023-05-23T03:08:23;99641.72;;;21.88;51.04
79625;BME280;69101;45.534;10.218;2023-05-23T03:10:49;99644.38;;;21.88;51.05
79625;BME280;69101;45.534;10.218;2023-05-23T03:13:15;99633.78;;;21.88;50.98
79625;BME280;69101;45.534;10.218;2023-05-23T03:15:40;99634.78;;;21.87;50.90
79625;BME280;69101;45.534;10.218;2023-05-23T03:18:06;99634.56;;;21.88;51.00
79625;BME280;69101;45.534;10.218;2023-05-23T03:20:32;99632.16;;;21.87;50.95
79625;BME280;69101;45.534;10.218;2023-05-23T03:22:57;99637.44;;;21.87;51.04
79625;BME280;69101;45.534;10.218;2023-05-23T03:25:22;99641.09;;;21.86;50.93
79625;BME280;69101;45.534;10.218;2023-05-23T03:27:48;99645.56;;;21.85;50.97
79625;BME280;69101;45.534;10.218;2023-05-23T03:30:13;99643.75;;;21.86;50.91
79625;BME280;69101;45.534;10.218;2023-05-23T03:32:39;99630.28;;;21.80;51.02
79625;BME280;69101;45.534;10.218;2023-05-23T03:35:04;99643.94;;;21.84;51.01
79625;BME280;69101;45.534;10.218;2023-05-23T03:37:30;99650.06;;;21.84;50.79
79625;BME280;69101;45.534;10.218;2023-05-23T03:39:55;99652.69;;;21.84;50.78
79625;BME280;69101;45.534;10.218;2023-05-23T03:42:20;99650.06;;;21.84;50.91
79625;BME280;69101;45.534;10.218;2023-05-23T03:44:46;99645.78;;;21.83;50.93
79625;BME280;69101;45.534;10.218;2023-05-23T03:47:11;99644.94;;;21.83;50.79
79625;BME280;69101;45.534;10.218;2023-05-23T03:49:36;99642.53;;;21.81;51.04
79625;BME280;69101;45.534;10.218;2023-05-23T03:52:02;99648.03;;;21.80;50.80
79625;BME280;69101;45.534;10.218;2023-05-23T03:54:27;99648.03;;;21.80;50.99
79625;BME280;69101;45.534;10.218;2023-05-23T03:56:52;99646.81;;;21.82;50.79
79625;BME280;69101;45.534;10.218;2023-05-23T03:59:18;99647.00;;;21.81;50.71
79625;BME280;69101;45.534;10.218;2023-05-23T04:01:43;99654.75;;;21.82;50.30
79625;BME280;69101;45.534;10.218;2023-05-23T04:04:08;99651.06;;;21.83;50.33
79625;BME280;69101;45.534;10.218;2023-05-23T04:06:34;99660.84;;;21.83;50.42
79625;BME280;69101;45.534;10.218;2023-05-23T04:08:59;99660.84;;;21.83;50.32
79625;BME280;69101;45.534;10.218;2023-05-23T04:11:26;99661.47;;;21.85;50.31
79625;BME280;69101;45.534;10.218;2023-05-23T04:13:51;99662.28;;;21.86;50.28
79625;BME280;69101;45.534;10.218;2023-05-23T04:16:17;99655.34;;;21.84;50.51
79625;BME280;69101;45.534;10.218;2023-05-23T04:18:43;99649.47;;;21.82;50.43
79625;BME280;69101;45.534;10.218;2023-05-23T04:21:11;99655.34;;;21.84;50.51
79625;BME280;69101;45.534;10.218;2023-05-23T04:23:37;99653.72;;;21.83;50.53
79625;BME280;69101;45.534;10.218;2023-05-23T04:26:02;99653.72;;;21.83;50.48
79625;BME280;69101;45.534;10.218;2023-05-23T04:28:30;99656.59;;;21.82;50.47
79625;BME280;69101;45.534;10.218;2023-05-23T04:30:56;99659.44;;;21.87;50.47
79625;BME280;69101;45.534;10.218;2023-05-23T04:33:22;99654.34;;;21.86;50.56
79625;BME280;69101;45.534;10.218;2023-05-23T04:35:48;99660.84;;;21.90;50.52
79625;BME280;69101;45.534;10.218;2023-05-23T04:38:13;99659.41;;;21.94;50.40
79625;BME280;69101;45.534;10.218;2023-05-23T04:40:39;99656.16;;;21.92;50.52
79625;BME280;69101;45.534;10.218;2023-05-23T04:43:04;99665.75;;;21.93;50.49
79625;BME280;69101;45.534;10.218;2023-05-23T04:45:30;99663.28;;;21.98;50.39
79625;BME280;69101;45.534;10.218;2023-05-23T04:47:55;99661.63;;;22.03;50.22
79625;BME280;69101;45.534;10.218;2023-05-23T04:50:21;99650.63;;;22.00;50.14
79625;BME280;69101;45.534;10.218;2023-05-23T04:52:47;99661.41;;;22.05;50.15
79625;BME280;69101;45.534;10.218;2023-05-23T04:55:12;99668.13;;;22.07;50.02
79625;BME280;69101;45.534;10.218;2023-05-23T04:57:38;99663.63;;;22.08;50.26
79625;BME280;69101;45.534;10.218;2023-05-23T05:00:04;99663.41;;;22.09;50.17
79625;BME280;69101;45.534;10.218;2023-05-23T05:02:39;99667.09;;;22.08;50.03
79625;BME280;69101;45.534;10.218;2023-05-23T05:05:05;99671.19;;;22.04;50.16
79625;BME280;69101;45.534;10.218;2023-05-23T05:07:31;99670.38;;;22.04;50.17
79625;BME280;69101;45.534;10.218;2023-05-23T05:09:56;99672.00;;;22.05;49.95
79625;BME280;69101;45.534;10.218;2023-05-23T05:12:22;99676.91;;;22.01;50.10
79625;BME280;69101;45.534;10.218;2023-05-23T05:14:47;99671.22;;;21.98;50.03
79625;BME280;69101;45.534;10.218;2023-05-23T05:17:13;99678.34;;;21.97;50.02
79625;BME280;69101;45.534;10.218;2023-05-23T05:19:38;99671.00;;;21.99;49.96
79625;BME280;69101;45.534;10.218;2023-05-23T05:22:03;99665.50;;;22.01;50.08
79625;BME280;69101;45.534;10.218;2023-05-23T05:24:29;99660.81;;;22.03;50.26
79625;BME280;69101;45.534;10.218;2023-05-23T05:26:54;99661.63;;;22.03;50.02
79625;BME280;69101;45.534;10.218;2023-05-23T05:29:20;99658.16;;;22.03;49.97
79625;BME280;69101;45.534;10.218;2023-05-23T05:31:46;99656.53;;;22.02;49.97
79625;BME280;69101;45.534;10.218;2023-05-23T05:34:11;99666.09;;;22.03;50.04
79625;BME280;69101;45.534;10.218;2023-05-23T05:36:37;99659.78;;;22.04;49.93
79625;BME280;69101;45.534;10.218;2023-05-23T05:39:09;99665.69;;;22.06;50.07
79625;BME280;69101;45.534;10.218;2023-05-23T05:41:35;99655.50;;;22.03;50.02
79625;BME280;69101;45.534;10.218;2023-05-23T05:44:00;99655.88;;;22.06;49.87
79625;BME280;69101;45.534;10.218;2023-05-23T05:46:26;99649.34;;;22.09;49.92
79625;BME280;69101;45.534;10.218;2023-05-23T05:48:51;99658.94;;;22.10;49.93
79625;BME280;69101;45.534;10.218;2023-05-23T05:51:16;99650.19;;;22.09;49.85
79625;BME280;69101;45.534;10.218;2023-05-23T05:53:42;99652.44;;;22.06;49.93
79625;BME280;69101;45.534;10.218;2023-05-23T05:56:07;99655.69;;;22.08;49.85
79625;BME280;69101;45.534;10.218;2023-05-23T05:58:33;99652.00;;;22.09;49.87
79625;BME280;69101;45.534;10.218;2023-05-23T06:00:58;99655.28;;;22.11;49.85
79625;BME280;69101;45.534;10.218;2023-05-23T06:03:24;99658.94;;;22.10;49.71
79625;BME280;69101;45.534;10.218;2023-05-23T06:05:50;99658.13;;;22.09;49.79
79625;BME280;69101;45.534;10.218;2023-05-23T06:08:15;99660.56;;;22.11;49.85
79625;BME280;69101;45.534;10.218;2023-05-23T06:10:41;99659.94;;;22.09;49.74
79625;BME280;69101;45.534;10.218;2023-05-23T06:13:06;99660.56;;;22.11;49.91
79625;BME280;69101;45.534;10.218;2023-05-23T06:15:31;99663.22;;;22.11;49.85
79625;BME280;69101;45.534;10.218;2023-05-23T06:17:57;99665.06;;;22.10;49.83
79625;BME280;69101;45.534;10.218;2023-05-23T06:20:22;99663.22;;;22.11;50.03
79625;BME280;69101;45.534;10.218;2023-05-23T06:22:47;99665.66;;;22.12;49.82
79625;BME280;69101;45.534;10.218;2023-05-23T06:25:13;99658.94;;;22.10;49.92
79625;BME280;69101;45.534;10.218;2023-05-23T06:27:38;99665.88;;;22.11;49.86
79625;BME280;69101;45.534;10.218;2023-05-23T06:30:04;99665.06;;;22.10;50.00
79625;BME280;69101;45.534;10.218;2023-05-23T06:32:30;99662.81;;;22.07;50.07
79625;BME280;69101;45.534;10.218;2023-05-23T06:34:55;99667.47;;;22.12;49.86
79625;BME280;69101;45.534;10.218;2023-05-23T06:37:20;99666.88;;;22.10;50.04
79625;BME280;69101;45.534;10.218;2023-05-23T06:39:46;99667.91;;;22.09;49.92
79625;BME280;69101;45.534;10.218;2023-05-23T06:42:11;99666.72;;;22.05;50.22
79625;BME280;69101;45.534;10.218;2023-05-23T06:44:36;99664.66;;;22.07;50.03
79625;BME280;69101;45.534;10.218;2023-05-23T06:47:02;99667.91;;;22.09;50.10
79625;BME280;69101;45.534;10.218;2023-05-23T06:49:27;99671.59;;;22.08;49.93
79625;BME280;69101;45.534;10.218;2023-05-23T06:51:52;99671.59;;;22.08;50.03
79625;BME280;69101;45.534;10.218;2023-05-23T06:54:18;99675.84;;;22.09;50.08
79625;BME280;69101;45.534;10.218;2023-05-23T06:56:43;99667.09;;;22.08;50.03
79625;BME280;69101;45.534;10.218;2023-05-23T06:59:09;99669.53;;;22.10;50.06
79625;BME280;69101;45.534;10.218;2023-05-23T07:01:34;99670.53;;;22.09;50.06
79625;BME280;69101;45.534;10.218;2023-05-23T07:04:00;99669.53;;;22.10;50.16
79625;BME280;69101;45.534;10.218;2023-05-23T07:06:25;99668.94;;;22.08;49.96
79625;BME280;69101;45.534;10.218;2023-05-23T07:08:53;99654.66;;;22.09;50.12
79625;BME280;69101;45.534;10.218;2023-05-23T07:11:20;99656.72;;;22.07;50.20
79625;BME280;69101;45.534;10.218;2023-05-23T07:13:46;99664.25;;;22.10;50.01
79625;BME280;69101;45.534;10.218;2023-05-23T07:16:11;99660.19;;;22.07;50.18
79625;BME280;69101;45.534;10.218;2023-05-23T07:18:37;99659.72;;;22.17;49.93
79625;BME280;69101;45.534;10.218;2023-05-23T07:21:02;99664.94;;;22.30;49.65
79625;BME280;69101;45.534;10.218;2023-05-23T07:23:31;99653.09;;;22.39;49.35
79625;BME280;69101;45.534;10.218;2023-05-23T07:25:58;99653.28;;;22.44;49.30
79625;BME280;69101;45.534;10.218;2023-05-23T07:28:23;99655.53;;;22.40;49.55
79625;BME280;69101;45.534;10.218;2023-05-23T07:30:49;99651.56;;;22.50;49.14
79625;BME280;69101;45.534;10.218;2023-05-23T07:33:15;99649.09;;;22.55;49.11
79625;BME280;69101;45.534;10.218;2023-05-23T07:35:40;99653.38;;;22.56;49.04
79625;BME280;69101;45.534;10.218;2023-05-23T07:38:06;99654.28;;;22.43;49.47
79625;BME280;69101;45.534;10.218;2023-05-23T07:40:31;99646.34;;;22.43;49.60
79625;BME280;69101;45.534;10.218;2023-05-23T07:42:56;99655.09;;;22.43;49.74
79625;BME280;69101;45.534;10.218;2023-05-23T07:45:22;99654.22;;;22.50;49.63
79625;BME280;69101;45.534;10.218;2023-05-23T07:47:47;99655.03;;;22.57;49.36
79625;BME280;69101;45.534;10.218;2023-05-23T07:50:13;99651.88;;;22.35;50.00
79625;BME280;69101;45.534;10.218;2023-05-23T07:52:38;99639.53;;;22.22;50.42
79625;BME280;69101;45.534;10.218;2023-05-23T07:55:04;99646.88;;;22.20;50.42
79625;BME280;69101;45.534;10.218;2023-05-23T07:57:29;99654.41;;;22.17;50.67
79625;BME280;69101;45.534;10.218;2023-05-23T07:59:55;99648.09;;;22.18;50.56
79625;BME280;69101;45.534;10.218;2023-05-23T08:02:21;99646.69;;;22.15;50.85
79625;BME280;69101;45.534;10.218;2023-05-23T08:04:47;99644.88;;;22.16;50.77
79625;BME280;69101;45.534;10.218;2023-05-23T08:07:12;99642.22;;;22.16;50.80
79625;BME280;69101;45.534;10.218;2023-05-23T08:09:38;99643.44;;;22.13;51.06
79625;BME280;69101;45.534;10.218;2023-05-23T08:12:08;99640.16;;;22.18;50.91
79625;BME280;69101;45.534;10.218;2023-05-23T08:14:34;99632.03;;;22.13;50.98
79625;BME280;69101;45.534;10.218;2023-05-23T08:16:59;99643.00;;;22.16;51.21
79625;BME280;69101;45.534;10.218;2023-05-23T08:19:25;99638.75;;;22.15;51.02
79625;BME280;69101;45.534;10.218;2023-05-23T08:21:50;99639.75;;;22.14;51.13
79625;BME280;69101;45.534;10.218;2023-05-23T08:24:20;99645.06;;;22.14;51.20
79625;BME280;69101;45.534;10.218;2023-05-23T08:26:46;99644.88;;;22.16;51.09
79625;BME280;69101;45.534;10.218;2023-05-23T08:29:12;99645.88;;;22.15;51.10
79625;BME280;69101;45.534;10.218;2023-05-23T08:31:37;99644.03;;;22.15;51.18
79625;BME280;69101;45.534;10.218;2023-05-23T08:34:03;99650.16;;;22.16;51.29
79625;BME280;69101;45.534;10.218;2023-05-23T08:36:28;99642.00;;;22.17;51.28
79625;BME280;69101;45.534;10.218;2023-05-23T08:38:54;99646.28;;;22.18;51.22
79625;BME280;69101;45.534;10.218;2023-05-23T08:41:23;99645.22;;;22.19;51.17
79625;BME280;69101;45.534;10.218;2023-05-23T08:43:49;99640.75;;;22.20;51.08
79625;BME280;69101;45.534;10.218;2023-05-23T08:46:15;99639.34;;;22.17;51.17
79625;BME280;69101;45.534;10.218;2023-05-23T08:48:52;99643.41;;;22.20;51.13
79625;BME280;69101;45.534;10.218;2023-05-23T08:51:20;99637.09;;;22.21;51.30
79625;BME280;69101;45.534;10.218;2023-05-23T08:53:46;99645.03;;;22.21;51.21
79625;BME280;69101;45.534;10.218;2023-05-23T08:56:13;99646.28;;;22.18;51.36
79625;BME280;69101;45.534;10.218;2023-05-23T08:58:40;99642.59;;;22.19;51.31
79625;BME280;69101;45.534;10.218;2023-05-23T09:01:08;99644.41;;;22.19;51.42
79625;BME280;69101;45.534;10.218;2023-05-23T09:03:36;99647.06;;;22.19;51.25
79625;BME280;69101;45.534;10.218;2023-05-23T09:06:02;99644.41;;;22.19;51.41
79625;BME280;69101;45.534;10.218;2023-05-23T09:08:28;99640.16;;;22.18;51.30
79625;BME280;69101;45.534;10.218;2023-05-23T09:10:54;99641.75;;;22.25;51.46
79625;BME280;69101;45.534;10.218;2023-05-23T09:13:20;99646.41;;;22.30;51.33
79625;BME280;69101;45.534;10.218;2023-05-23T09:16:02;99642.50;;;22.32;51.50
79625;BME280;69101;45.534;10.218;2023-05-23T09:18:41;99641.09;;;22.30;51.61
79625;BME280;69101;45.534;10.218;2023-05-23T09:21:07;99637.81;;;22.34;51.52
79625;BME280;69101;45.534;10.218;2023-05-23T09:23:34;99642.50;;;22.32;51.60
79625;BME280;69101;45.534;10.218;2023-05-23T09:26:04;99644.66;;;22.49;50.98
79625;BME280;69101;45.534;10.218;2023-05-23T09:28:31;99639.09;;;22.63;50.88
79625;BME280;69101;45.534;10.218;2023-05-23T09:31:00;99637.81;;;22.72;51.08
79625;BME280;69101;45.534;10.218;2023-05-23T09:33:52;99640.00;;;22.75;50.83
79625;BME280;69101;45.534;10.218;2023-05-23T09:36:17;99622.66;;;22.79;51.24
79625;BME280;69101;45.534;10.218;2023-05-23T09:38:46;99630.78;;;22.84;51.17
79625;BME280;69101;45.534;10.218;2023-05-23T09:41:18;99627.91;;;22.86;51.13
79625;BME280;69101;45.534;10.218;2023-05-23T09:43:53;99632.34;;;22.92;52.62
79625;BME280;69101;45.534;10.218;2023-05-23T09:46:21;99635.91;;;23.04;51.89
79625;BME280;69101;45.534;10.218;2023-05-23T09:48:47;99629.03;;;22.96;51.73
79625;BME280;69101;45.534;10.218;2023-05-23T09:51:18;99632.94;;;22.94;52.06
79625;BME280;69101;45.534;10.218;2023-05-23T09:53:43;99627.63;;;22.94;52.06
79625;BME280;69101;45.534;10.218;2023-05-23T09:56:09;99631.31;;;22.93;52.29
79625;BME280;69101;45.534;10.218;2023-05-23T09:58:37;99628.69;;;22.93;52.24
79625;BME280;69101;45.534;10.218;2023-05-23T10:01:06;99632.13;;;22.93;52.30
79625;BME280;69101;45.534;10.218;2023-05-23T10:03:43;99624.97;;;22.94;52.58
79625;BME280;69101;45.534;10.218;2023-05-23T10:06:30;99621.81;;;22.85;53.06
79625;BME280;69101;45.534;10.218;2023-05-23T10:09:02;99635.53;;;22.76;53.13
79625;BME280;69101;45.534;10.218;2023-05-23T10:14:01;99622.34;;;22.69;53.53
79625;BME280;69101;45.534;10.218;2023-05-23T10:16:43;99624.97;;;22.69;53.39
79625;BME280;69101;45.534;10.218;2023-05-23T10:19:22;99615.03;;;22.58;53.58
79625;BME280;69101;45.534;10.218;2023-05-23T10:21:57;99614.63;;;22.55;53.64
79625;BME280;69101;45.534;10.218;2023-05-23T10:24:23;99615.03;;;22.58;54.06
79625;BME280;69101;45.534;10.218;2023-05-23T10:26:50;99620.34;;;22.58;53.68
79625;BME280;69101;45.534;10.218;2023-05-23T10:29:16;99612.59;;;22.57;53.95
79625;BME280;69101;45.534;10.218;2023-05-23T10:31:41;99619.56;;;22.51;53.83
79625;BME280;69101;45.534;10.218;2023-05-23T10:34:14;99614.09;;;22.46;54.17
79625;BME280;69101;45.534;10.218;2023-05-23T10:42:30;99601.66;;;22.47;54.17
79625;BME280;69101;45.534;10.218;2023-05-23T10:47:46;99604.00;;;22.36;54.00
79625;BME280;69101;45.534;10.218;2023-05-23T10:50:12;99599.28;;;22.38;54.28
79625;BME280;69101;45.534;10.218;2023-05-23T10:52:41;99595.22;;;22.36;54.36
79625;BME280;69101;45.534;10.218;2023-05-23T10:55:14;99596.41;;;22.40;54.07
79625;BME280;69101;45.534;10.218;2023-05-23T10:57:42;99590.72;;;22.36;54.09
79625;BME280;69101;45.534;10.218;2023-05-23T11:00:15;99598.88;;;22.35;54.14
79625;BME280;69101;45.534;10.218;2023-05-23T11:02:53;99599.44;;;22.43;54.21
79625;BME280;69101;45.534;10.218;2023-05-23T11:05:27;99589.81;;;22.49;53.37
79625;BME280;69101;45.534;10.218;2023-05-23T11:08:08;99590.25;;;22.46;54.07
79625;BME280;69101;45.534;10.218;2023-05-23T11:10:53;99582.06;;;22.48;53.87
79625;BME280;69101;45.534;10.218;2023-05-23T11:13:20;99588.19;;;22.48;53.65
79625;BME280;69101;45.534;10.218;2023-05-23T11:15:46;99581.25;;;22.47;53.88
79625;BME280;69101;45.534;10.218;2023-05-23T11:18:22;99580.63;;;22.52;53.52
79625;BME280;69101;45.534;10.218;2023-05-23T11:20:50;99589.38;;;22.52;53.48
79625;BME280;69101;45.534;10.218;2023-05-23T11:23:16;99586.94;;;22.51;53.56
79625;BME280;69101;45.534;10.218;2023-05-23T11:25:50;99584.06;;;22.52;53.49
79625;BME280;69101;45.534;10.218;2023-05-23T11:28:16;99580.25;;;22.48;53.52
79625;BME280;69101;45.534;10.218;2023-05-23T11:30:43;99585.13;;;22.51;53.43
79625;BME280;69101;45.534;10.218;2023-05-23T11:33:10;99572.06;;;22.50;53.43
79625;BME280;69101;45.534;10.218;2023-05-23T11:35:56;99578.78;;;22.52;53.45
79625;BME280;69101;45.534;10.218;2023-05-23T11:38:21;99570.47;;;22.49;53.48
79625;BME280;69101;45.534;10.218;2023-05-23T11:40:46;99567.00;;;22.48;53.37
79625;BME280;69101;45.534;10.218;2023-05-23T11:43:14;99562.09;;;22.52;53.39
79625;BME280;69101;45.534;10.218;2023-05-23T11:45:41;99562.28;;;22.50;53.34
79625;BME280;69101;45.534;10.218;2023-05-23T11:48:11;99573.47;;;22.52;53.27
79625;BME280;69101;45.534;10.218;2023-05-23T11:50:52;99566.75;;;22.50;53.46
79625;BME280;69101;45.534;10.218;2023-05-23T11:53:19;99566.19;;;22.48;53.24
79625;BME280;69101;45.534;10.218;2023-05-23T11:55:53;99566.19;;;22.48;53.35
79625;BME280;69101;45.534;10.218;2023-05-23T11:58:21;99562.88;;;22.52;53.09
79625;BME280;69101;45.534;10.218;2023-05-23T12:00:46;99561.25;;;22.51;53.15
79625;BME280;69101;45.534;10.218;2023-05-23T12:03:12;99557.78;;;22.51;53.04
79625;BME280;69101;45.534;10.218;2023-05-23T12:05:38;99563.91;;;22.51;53.21
79625;BME280;69101;45.534;10.218;2023-05-23T12:08:03;99561.03;;;22.53;52.98
79625;BME280;69101;45.534;10.218;2023-05-23T12:10:28;99559.19;;;22.53;52.98
79625;BME280;69101;45.534;10.218;2023-05-23T12:12:54;99561.25;;;22.51;53.04
79625;BME280;69101;45.534;10.218;2023-05-23T12:15:24;99555.16;;;22.51;53.06
79625;BME280;69101;45.534;10.218;2023-05-23T12:17:53;99554.34;;;22.50;52.99
79625;BME280;69101;45.534;10.218;2023-05-23T12:20:19;99547.78;;;22.53;53.02
79625;BME280;69101;45.534;10.218;2023-05-23T12:22:45;99550.25;;;22.54;52.87
79625;BME280;69101;45.534;10.218;2023-05-23T12:25:10;99549.84;;;22.51;53.15
79625;BME280;69101;45.534;10.218;2023-05-23T12:27:38;99553.09;;;22.53;52.83
79625;BME280;69101;45.534;10.218;2023-05-23T12:30:09;99551.25;;;22.53;52.89
79625;BME280;69101;45.534;10.218;2023-05-23T12:32:42;99552.06;;;22.54;52.89
79625;BME280;69101;45.534;10.218;2023-05-23T12:35:09;99556.97;;;22.50;52.97
79625;BME280;69101;45.534;10.218;2023-05-23T12:37:45;99555.56;;;22.48;53.14
79625;BME280;69101;45.534;10.218;2023-05-23T12:40:12;99550.44;;;22.53;52.63
79625;BME280;69101;45.534;10.218;2023-05-23T12:45:18;99549.41;;;22.54;52.67
79625;BME280;69101;45.534;10.218;2023-05-23T12:47:43;99551.84;;;22.55;52.61
79625;BME280;69101;45.534;10.218;2023-05-23T12:50:09;99552.66;;;22.56;52.48
79625;BME280;69101;45.534;10.218;2023-05-23T12:52:36;99546.53;;;22.55;52.58
79625;BME280;69101;45.534;10.218;2023-05-23T12:55:01;99548.19;;;22.56;52.45
79625;BME280;69101;45.534;10.218;2023-05-23T12:57:27;99538.38;;;22.57;52.50
79625;BME280;69101;45.534;10.218;2023-05-23T12:59:52;99534.34;;;22.54;52.69
79625;BME280;69101;45.534;10.218;2023-05-23T13:02:17;99523.94;;;22.53;52.42
79625;BME280;69101;45.534;10.218;2023-05-23T13:04:43;99527.16;;;22.55;52.57
79625;BME280;69101;45.534;10.218;2023-05-23T13:07:08;99532.84;;;22.58;52.27
79625;BME280;69101;45.534;10.218;2023-05-23T13:09:34;99531.81;;;22.66;52.29